createdAt,value
2023-02-24T00:02:04.457Z,62.20
2023-02-24T00:04:34.872Z,57.93
2023-02-24T00:07:02.792Z,62.00
2023-02-24T00:09:31.392Z,57.23
2023-02-24T00:12:11.054Z,58.33
2023-02-24T00:14:39.853Z,56.93
2023-02-24T00:17:08.245Z,57.90
2023-02-24T00:19:36.731Z,55.30
2023-02-24T00:22:05.646Z,57.20
2023-02-24T00:24:32.843Z,57.10
2023-02-24T00:27:02.570Z,53.27
2023-02-24T00:29:32.424Z,53.87
2023-02-24T00:32:00.328Z,52.97
2023-02-24T00:34:32.036Z,54.73
2023-02-24T00:36:59.476Z,53.77
2023-02-24T00:39:30.613Z,52.97
2023-02-24T00:42:04.694Z,54.73
2023-02-24T00:44:45.716Z,54.77
2023-02-24T00:47:16.683Z,55.30
2023-02-24T00:49:43.796Z,51.97
2023-02-24T00:52:13.811Z,55.10
2023-02-24T00:54:45.126Z,54.43
2023-02-24T00:57:12.322Z,55.23
2023-02-24T00:59:39.596Z,54.53
2023-02-24T01:02:07.699Z,53.80
2023-02-24T01:04:37.455Z,53.80
2023-02-24T01:07:11.096Z,54.13
2023-02-24T01:09:39.764Z,51.43
2023-02-24T01:12:38.241Z,51.10
2023-02-24T01:15:08.991Z,52.30
2023-02-24T01:17:37.463Z,52.83
2023-02-24T01:20:16.079Z,51.03
2023-02-24T01:22:53.836Z,52.67
2023-02-24T01:25:21.232Z,49.80
2023-02-24T01:27:48.568Z,50.70
2023-02-24T01:30:18.672Z,51.13
2023-02-24T01:32:47.219Z,48.90
2023-02-24T01:35:15.062Z,50.57
2023-02-24T01:37:43.133Z,49.17
2023-02-24T01:40:18.571Z,46.27
2023-02-24T01:42:47.602Z,46.43
2023-02-24T01:45:21.307Z,45.43
2023-02-24T01:47:49.167Z,44.77
2023-02-24T01:50:21.556Z,47.33
2023-02-24T01:52:52.625Z,45.97
2023-02-24T01:55:28.947Z,46.60
2023-02-24T01:57:57.737Z,41.73
2023-02-24T02:00:37.188Z,44.13
2023-02-24T02:03:24.215Z,41.87
2023-02-24T02:05:53.125Z,40.73
2023-02-24T02:08:21.979Z,40.10
2023-02-24T02:10:48.867Z,40.33
2023-02-24T02:13:21.520Z,40.47
2023-02-24T02:16:09.656Z,38.60
2023-02-24T02:18:48.188Z,38.50
2023-02-24T02:21:56.479Z,36.80
2023-02-24T02:25:07.166Z,38.00
2023-02-24T02:28:04.226Z,37.23
2023-02-24T02:30:55.352Z,36.87
2023-02-24T02:33:44.154Z,38.50
2023-02-24T02:36:22.496Z,35.63
2023-02-24T02:39:06.229Z,38.00
2023-02-24T02:42:14.351Z,37.67
2023-02-24T02:45:06.375Z,35.27
2023-02-24T02:47:51.917Z,35.20
2023-02-24T02:50:35.884Z,36.27
2023-02-24T02:53:10.309Z,34.97
2023-02-24T02:55:50.570Z,36.20
2023-02-24T02:58:23.595Z,36.17
2023-02-24T03:01:01.608Z,36.30
2023-02-24T03:03:35.679Z,32.90
2023-02-24T03:06:07.906Z,34.83
2023-02-24T03:08:37.838Z,36.10
2023-02-24T03:11:11.479Z,34.80
2023-02-24T03:13:43.214Z,35.73
2023-02-24T03:16:12.520Z,32.00
2023-02-24T03:18:45.635Z,34.43
2023-02-24T03:21:20.027Z,34.10
2023-02-24T03:23:50.604Z,35.23
2023-02-24T03:26:21.644Z,35.33
2023-02-24T03:29:02.875Z,36.10
2023-02-24T03:31:54.412Z,34.37
2023-02-24T03:34:43.387Z,33.47
2023-02-24T03:37:10.420Z,35.30
2023-02-24T03:39:38.752Z,34.23
2023-02-24T03:42:18.179Z,32.57
2023-02-24T03:44:45.860Z,32.27
2023-02-24T03:47:16.275Z,34.67
2023-02-24T03:49:43.847Z,33.23
2023-02-24T03:52:22.792Z,32.70
2023-02-24T03:55:13.872Z,33.50
2023-02-24T03:58:09.213Z,33.17
2023-02-24T04:00:51.055Z,31.17
2023-02-24T04:03:25.520Z,30.90
2023-02-24T04:06:21.520Z,30.90
2023-02-24T04:08:55.154Z,31.10
2023-02-24T04:12:09.338Z,33.13
2023-02-24T04:14:51.273Z,29.83
2023-02-24T04:17:28.819Z,30.77
2023-02-24T04:20:01.009Z,31.27
2023-02-24T04:22:36.155Z,29.67
2023-02-24T04:25:06.292Z,30.93
2023-02-24T04:27:34.194Z,29.83
2023-02-24T04:30:13.199Z,30.90
2023-02-24T04:32:43.342Z,29.17
2023-02-24T04:35:15.473Z,29.77
2023-02-24T04:37:46.225Z,30.00
2023-02-24T04:40:17.571Z,30.23
2023-02-24T04:42:49.056Z,29.57
2023-02-24T04:45:25.528Z,28.57
2023-02-24T04:48:00.982Z,29.20
2023-02-24T04:50:34.368Z,28.33
2023-02-24T04:53:09.685Z,27.13
2023-02-24T04:55:42.816Z,30.07
2023-02-24T04:58:12.615Z,28.43
2023-02-24T05:00:41.897Z,28.60
2023-02-24T05:03:12.629Z,29.07
2023-02-24T05:05:42.851Z,30.53
2023-02-24T05:08:10.942Z,29.37
2023-02-24T05:10:46.584Z,29.77
2023-02-24T05:13:26.234Z,28.73
2023-02-24T05:15:57.594Z,28.40
2023-02-24T05:18:25.519Z,28.67
2023-02-24T05:21:13.383Z,28.80
2023-02-24T05:23:45.633Z,28.37
2023-02-24T05:26:16.874Z,27.30
2023-02-24T05:28:49.370Z,28.80
2023-02-24T05:31:20.157Z,29.37
2023-02-24T05:33:50.053Z,28.90
2023-02-24T05:36:18.832Z,29.57
2023-02-24T05:38:56.605Z,28.60
2023-02-24T05:41:35.884Z,28.87
2023-02-24T05:44:08.570Z,26.20
2023-02-24T05:46:39.218Z,29.37
2023-02-24T05:49:23.184Z,26.17
2023-02-24T05:51:55.417Z,28.40
2023-02-24T05:54:44.106Z,29.30
2023-02-24T05:57:15.367Z,28.30
2023-02-24T05:59:44.661Z,29.00
2023-02-24T06:02:14.891Z,28.47
2023-02-24T06:04:50.975Z,30.40
2023-02-24T06:07:22.679Z,29.03
2023-02-24T06:09:53.921Z,27.37
2023-02-24T06:12:25.684Z,28.57
2023-02-24T06:14:53.097Z,29.63
2023-02-24T06:17:23.001Z,30.20
2023-02-24T06:19:51.719Z,29.80
2023-02-24T06:22:20.792Z,30.20
2023-02-24T06:24:49.386Z,30.07
2023-02-24T06:27:19.231Z,28.47
2023-02-24T06:29:51.676Z,28.83
2023-02-24T06:32:21.551Z,29.20
2023-02-24T06:34:49.115Z,28.47
2023-02-24T06:37:16.555Z,30.43
2023-02-24T06:39:43.782Z,29.13
2023-02-24T06:42:12.217Z,29.47
2023-02-24T06:44:41.135Z,27.60
2023-02-24T06:47:12.993Z,26.97
2023-02-24T06:49:40.790Z,26.80
2023-02-24T06:52:08.798Z,25.63
2023-02-24T06:54:36.238Z,25.17
2023-02-24T06:57:04.105Z,23.10
2023-02-24T06:59:32.244Z,24.50
2023-02-24T07:02:01.929Z,19.33
2023-02-24T07:04:29.612Z,16.47
2023-02-24T07:07:02.893Z,13.73
2023-02-24T07:09:31.563Z,10.87
2023-02-24T07:11:59.424Z,10.63
2023-02-24T07:14:30.571Z,10.40
2023-02-24T07:16:58.510Z,11.23
2023-02-24T07:19:29.172Z,11.03
2023-02-24T07:22:00.332Z,13.07
2023-02-24T07:24:33.227Z,15.93
2023-02-24T07:27:07.696Z,15.03
2023-02-24T07:29:36.332Z,16.07
2023-02-24T07:32:06.055Z,16.47
2023-02-24T07:34:34.155Z,13.67
2023-02-24T07:37:07.883Z,12.40
2023-02-24T07:39:37.768Z,8.83
2023-02-24T07:42:05.599Z,8.70
2023-02-24T07:44:44.550Z,7.57
2023-02-24T07:47:11.394Z,8.67
2023-02-24T07:49:41.051Z,9.47
2023-02-24T07:52:08.422Z,10.60
2023-02-24T07:54:36.956Z,10.57
2023-02-24T07:57:05.440Z,10.33
2023-02-24T07:59:37.597Z,8.80
2023-02-24T08:02:07.690Z,8.10
2023-02-24T08:04:36.340Z,5.70
2023-02-24T08:07:04.225Z,5.67
2023-02-24T08:09:45.887Z,6.63
2023-02-24T08:12:22.412Z,7.77
2023-02-24T08:14:52.555Z,7.20
2023-02-24T08:17:22.167Z,7.13
2023-02-24T08:20:01.009Z,5.83
2023-02-24T08:22:35.939Z,7.63
2023-02-24T08:25:06.751Z,7.47
2023-02-24T08:27:42.178Z,9.73
2023-02-24T08:30:21.176Z,9.83
2023-02-24T08:32:52.588Z,8.27
2023-02-24T08:35:20.254Z,7.03
2023-02-24T08:37:52.668Z,7.23
2023-02-24T08:40:33.924Z,7.13
2023-02-24T08:43:19.640Z,8.43
2023-02-24T08:45:52.533Z,7.90
2023-02-24T08:48:37.703Z,6.53
2023-02-24T08:51:10.231Z,5.83
2023-02-24T08:53:40.433Z,5.87
2023-02-24T08:56:13.253Z,5.30
2023-02-24T08:58:49.396Z,5.53
2023-02-24T09:01:24.013Z,4.83
2023-02-24T09:03:59.252Z,7.93
2023-02-24T09:06:35.044Z,5.80
2023-02-24T09:09:20.630Z,6.60
2023-02-24T09:11:57.350Z,5.73
2023-02-24T09:14:37.328Z,6.17
2023-02-24T09:17:06.978Z,5.07
2023-02-24T09:19:45.997Z,5.57
2023-02-24T09:22:32.830Z,5.20
2023-02-24T09:25:18.087Z,5.50
2023-02-24T09:27:55.172Z,4.80
2023-02-24T09:30:37.930Z,5.57
2023-02-24T09:33:18.598Z,6.07
2023-02-24T09:35:51.102Z,6.97
2023-02-24T09:38:43.402Z,4.60
2023-02-24T09:41:34.120Z,5.03
2023-02-24T09:44:07.487Z,5.27
2023-02-24T09:46:42.378Z,5.13
2023-02-24T09:49:18.083Z,4.50
2023-02-24T09:51:45.331Z,5.27
2023-02-24T09:54:18.823Z,5.23
2023-02-24T09:57:08.276Z,4.90
2023-02-24T09:59:40.579Z,5.73
2023-02-24T10:02:44.076Z,5.73
2023-02-24T10:05:14.549Z,5.23
2023-02-24T10:07:43.928Z,5.53
2023-02-24T10:10:19.808Z,5.40
2023-02-24T10:12:54.391Z,5.93
2023-02-24T10:15:44.572Z,5.00
2023-02-24T10:18:37.458Z,4.33
2023-02-24T10:21:49.524Z,5.33
2023-02-24T10:24:29.348Z,5.27
2023-02-24T10:27:08.460Z,4.93
2023-02-24T10:29:50.876Z,5.00
2023-02-24T10:32:41.299Z,7.00
2023-02-24T10:35:17.999Z,7.00
2023-02-24T10:37:45.276Z,5.40
2023-02-24T10:40:17.780Z,6.23
2023-02-24T10:42:47.957Z,5.33
2023-02-24T10:45:23.837Z,4.73
2023-02-24T10:47:56.539Z,4.70
2023-02-24T10:50:34.891Z,4.40
2023-02-24T10:53:11.337Z,4.13
2023-02-24T10:55:45.652Z,4.53
2023-02-24T10:58:56.850Z,4.63
2023-02-24T11:01:49.324Z,4.83
2023-02-24T11:04:33.398Z,4.97
2023-02-24T11:07:43.827Z,6.07
2023-02-24T11:10:25.767Z,3.83
2023-02-24T11:13:15.336Z,3.60
2023-02-24T11:16:04.634Z,3.73
2023-02-24T11:18:32.569Z,3.67
2023-02-24T11:21:03.138Z,3.60
2023-02-24T11:23:40.356Z,4.23
2023-02-24T11:26:16.818Z,3.67
2023-02-24T11:28:59.597Z,3.83
2023-02-24T11:31:38.442Z,4.00
2023-02-24T11:34:24.868Z,3.50
2023-02-24T11:37:04.112Z,3.83
2023-02-24T11:39:33.819Z,5.03
2023-02-24T11:42:08.021Z,4.93
2023-02-24T11:44:52.846Z,4.33
2023-02-24T11:47:31.366Z,4.10
2023-02-24T11:50:28.596Z,4.17
2023-02-24T11:52:58.707Z,5.40
2023-02-24T11:55:38.829Z,3.60
2023-02-24T11:58:17.183Z,4.30
2023-02-24T12:00:55.547Z,3.40
2023-02-24T12:03:32.944Z,3.97
2023-02-24T12:06:12.555Z,4.33
2023-02-24T12:08:45.037Z,4.63
2023-02-24T12:11:33.626Z,6.57
2023-02-24T12:14:03.426Z,7.80
2023-02-24T12:16:35.659Z,5.63
2023-02-24T12:19:13.289Z,6.13
2023-02-24T12:21:44.495Z,5.87
2023-02-24T12:24:13.793Z,6.00
2023-02-24T12:27:14.688Z,5.90
2023-02-24T12:30:48.930Z,5.77
2023-02-24T12:33:42.858Z,7.47
2023-02-24T12:36:15.903Z,5.60
2023-02-24T12:38:49.352Z,6.47
2023-02-24T12:41:27.779Z,6.10
2023-02-24T12:44:23.602Z,5.33
2023-02-24T12:47:15.155Z,4.40
2023-02-24T12:49:47.428Z,4.73
2023-02-24T12:53:13.243Z,5.07
2023-02-24T12:55:55.395Z,4.83
2023-02-24T12:58:26.613Z,5.20
2023-02-24T13:01:05.686Z,5.27
2023-02-24T13:03:57.010Z,3.97
2023-02-24T13:06:54.125Z,4.03
2023-02-24T13:09:38.776Z,4.53
2023-02-24T13:12:15.744Z,3.83
2023-02-24T13:14:44.326Z,4.20
2023-02-24T13:17:11.167Z,3.97
2023-02-24T13:19:43.811Z,4.07
2023-02-24T13:22:13.604Z,4.53
2023-02-24T13:25:02.880Z,5.20
2023-02-24T13:27:36.217Z,4.30
2023-02-24T13:30:12.127Z,3.80
2023-02-24T13:32:41.917Z,3.57
2023-02-24T13:35:14.582Z,3.33
2023-02-24T13:37:43.771Z,3.30
2023-02-24T13:40:16.863Z,3.80
2023-02-24T13:42:57.100Z,2.97
2023-02-24T13:45:26.437Z,3.63
2023-02-24T13:48:18.388Z,2.80
2023-02-24T13:51:09.197Z,2.90
2023-02-24T13:53:42.063Z,2.97
2023-02-24T13:56:28.041Z,3.40
2023-02-24T13:59:11.330Z,3.77
2023-02-24T14:01:51.720Z,2.97
2023-02-24T14:04:24.606Z,2.97
2023-02-24T14:07:04.913Z,2.33
2023-02-24T14:09:35.170Z,3.10
2023-02-24T14:12:15.872Z,2.77
2023-02-24T14:14:47.209Z,3.27
2023-02-24T14:17:28.859Z,3.40
2023-02-24T14:20:35.468Z,3.43
2023-02-24T14:23:02.547Z,3.57
2023-02-24T14:25:35.942Z,2.90
2023-02-24T14:28:03.334Z,2.90
2023-02-24T14:30:35.401Z,2.80
2023-02-24T14:33:04.605Z,2.77
2023-02-24T14:35:45.462Z,3.60
2023-02-24T14:38:30.871Z,3.43
2023-02-24T14:40:58.229Z,2.90
2023-02-24T14:43:25.632Z,3.73
2023-02-24T14:45:53.374Z,3.10
2023-02-24T14:48:28.166Z,3.13
2023-02-24T14:51:01.619Z,2.67
2023-02-24T14:53:31.749Z,2.67
2023-02-24T14:56:01.574Z,3.60
2023-02-24T14:58:54.621Z,2.40
2023-02-24T15:01:44.012Z,2.70
2023-02-24T15:04:42.478Z,2.90
2023-02-24T15:07:23.768Z,2.97
2023-02-24T15:09:52.183Z,3.30
2023-02-24T15:12:18.927Z,2.97
2023-02-24T15:15:18.750Z,3.03
2023-02-24T15:17:47.693Z,3.63
2023-02-24T15:20:36.384Z,3.40
2023-02-24T15:23:04.079Z,4.10
2023-02-24T15:25:43.668Z,3.30
2023-02-24T15:28:31.086Z,3.90
2023-02-24T15:31:22.470Z,3.20
2023-02-24T15:34:00.007Z,3.93
2023-02-24T15:36:32.844Z,3.93
2023-02-24T15:39:10.347Z,4.00
2023-02-24T15:41:39.475Z,3.60
2023-02-24T15:44:06.777Z,3.33
2023-02-24T15:46:35.925Z,3.73
2023-02-24T15:49:05.519Z,3.60
2023-02-24T15:51:42.036Z,3.33
2023-02-24T15:54:14.905Z,3.30
2023-02-24T15:56:43.248Z,4.03
2023-02-24T15:59:14.816Z,3.70
2023-02-24T16:01:42.029Z,4.33
2023-02-24T16:04:11.806Z,4.93
2023-02-24T16:06:43.572Z,4.67
2023-02-24T16:09:17.737Z,3.30
2023-02-24T16:11:46.901Z,3.67
2023-02-24T16:14:16.867Z,3.83
2023-02-24T16:16:44.604Z,3.73
2023-02-24T16:19:14.644Z,3.30
2023-02-24T16:21:42.125Z,3.90
2023-02-24T16:24:08.976Z,4.40
2023-02-24T16:26:39.178Z,3.30
2023-02-24T16:29:11.759Z,3.90
2023-02-24T16:31:39.248Z,3.80
2023-02-24T16:34:07.194Z,3.43
2023-02-24T16:36:34.435Z,3.30
2023-02-24T16:39:01.300Z,3.73
2023-02-24T16:41:28.962Z,3.90
2023-02-24T16:43:55.844Z,3.47
2023-02-24T16:46:23.760Z,2.90
2023-02-24T16:48:53.443Z,3.33
2023-02-24T16:51:21.894Z,3.43
2023-02-24T16:53:48.793Z,3.50
2023-02-24T16:56:16.211Z,4.10
2023-02-24T16:58:42.976Z,3.30
2023-02-24T17:01:18.937Z,4.30
2023-02-24T17:03:48.756Z,3.73
2023-02-24T17:06:16.015Z,4.30
2023-02-24T17:08:44.293Z,4.27
2023-02-24T17:11:14.148Z,4.40
2023-02-24T17:13:41.127Z,4.53
2023-02-24T17:16:08.359Z,4.80
2023-02-24T17:18:35.586Z,4.00
2023-02-24T17:21:03.378Z,3.70
2023-02-24T17:23:30.148Z,4.67
2023-02-24T17:26:00.228Z,4.77
2023-02-24T17:28:27.582Z,4.20
2023-02-24T17:30:54.668Z,4.57
2023-02-24T17:33:21.737Z,4.50
2023-02-24T17:35:49.192Z,4.00
2023-02-24T17:38:18.670Z,4.33
2023-02-24T17:40:46.723Z,5.93
2023-02-24T17:43:13.559Z,4.50
2023-02-24T17:45:44.376Z,4.50
2023-02-24T17:48:12.697Z,4.73
2023-02-24T17:50:48.660Z,4.07
2023-02-24T17:53:15.683Z,4.80
2023-02-24T17:56:01.002Z,4.17
2023-02-24T17:58:28.615Z,4.37
2023-02-24T18:00:55.728Z,4.20
2023-02-24T18:03:22.634Z,4.33
2023-02-24T18:05:58.503Z,4.30
2023-02-24T18:08:25.233Z,5.40
2023-02-24T18:10:52.205Z,4.73
2023-02-24T18:13:18.940Z,4.77
2023-02-24T18:15:46.034Z,4.50
2023-02-24T18:18:12.862Z,4.90
2023-02-24T18:20:43.683Z,5.50
2023-02-24T18:23:11.489Z,4.90
2023-02-24T18:25:38.518Z,5.00
2023-02-24T18:28:05.542Z,5.43
2023-02-24T18:30:32.886Z,5.37
2023-02-24T18:32:59.824Z,5.23
2023-02-24T18:35:29.303Z,5.27
2023-02-24T18:37:59.017Z,5.67
2023-02-24T18:40:26.824Z,5.67
2023-02-24T18:42:53.628Z,5.80
2023-02-24T18:45:22.211Z,4.97
2023-02-24T18:47:51.589Z,4.80
2023-02-24T18:50:18.913Z,5.83
2023-02-24T18:52:45.649Z,5.70
2023-02-24T18:55:12.701Z,5.10
2023-02-24T18:57:40.319Z,6.57
2023-02-24T19:00:08.085Z,4.87
2023-02-24T19:02:34.927Z,5.23
2023-02-24T19:05:02.196Z,5.60
2023-02-24T19:07:29.157Z,5.43
2023-02-24T19:09:56.321Z,5.50
2023-02-24T19:12:24.149Z,5.30
2023-02-24T19:14:54.217Z,5.77
2023-02-24T19:17:21.521Z,5.70
2023-02-24T19:19:48.923Z,5.53
2023-02-24T19:22:15.747Z,5.23
2023-02-24T19:24:43.051Z,6.07
2023-02-24T19:27:09.951Z,5.73
2023-02-24T19:29:37.020Z,5.67
2023-02-24T19:32:03.971Z,6.33
2023-02-24T19:34:31.083Z,6.17
2023-02-24T19:36:57.835Z,5.80
2023-02-24T19:39:24.813Z,6.40
2023-02-24T19:41:53.208Z,6.10
2023-02-24T19:44:20.413Z,5.90
2023-02-24T19:46:47.554Z,6.20
2023-02-24T19:49:14.545Z,6.97
2023-02-24T19:51:41.292Z,6.43
2023-02-24T19:54:11.903Z,7.07
2023-02-24T19:56:38.761Z,6.03
2023-02-24T19:59:11.441Z,6.93
2023-02-24T20:01:38.391Z,6.60
2023-02-24T20:04:05.852Z,6.60
2023-02-24T20:06:38.753Z,6.63
2023-02-24T20:09:09.370Z,7.33
2023-02-24T20:11:39.858Z,6.77
2023-02-24T20:14:08.522Z,7.00
2023-02-24T20:16:37.517Z,6.43
2023-02-24T20:19:06.063Z,6.03
2023-02-24T20:21:33.778Z,5.83
2023-02-24T20:24:05.724Z,5.70
2023-02-24T20:26:32.907Z,5.33
2023-02-24T20:29:00.550Z,5.60
2023-02-24T20:31:28.006Z,5.27
2023-02-24T20:33:56.413Z,4.47
2023-02-24T20:36:26.510Z,4.10
2023-02-24T20:38:54.776Z,4.83
2023-02-24T20:41:23.581Z,4.17
2023-02-24T20:43:50.947Z,4.10
2023-02-24T20:46:19.178Z,3.90
2023-02-24T20:48:46.187Z,3.60
2023-02-24T20:51:13.322Z,3.80
2023-02-24T20:53:56.164Z,3.40
2023-02-24T20:56:29.606Z,3.30
2023-02-24T20:59:00.873Z,3.97
2023-02-24T21:01:29.244Z,3.40
2023-02-24T21:03:56.743Z,4.27
2023-02-24T21:06:24.355Z,3.30
2023-02-24T21:08:53.220Z,3.23
2023-02-24T21:11:21.107Z,2.90
2023-02-24T21:13:49.988Z,4.37
2023-02-24T21:16:19.388Z,3.43
2023-02-24T21:18:48.297Z,3.20
2023-02-24T21:21:16.757Z,3.13
2023-02-24T21:23:44.372Z,2.87
2023-02-24T21:26:12.084Z,3.70
2023-02-24T21:28:40.395Z,3.60
2023-02-24T21:31:12.019Z,3.33
2023-02-24T21:33:39.152Z,3.60
2023-02-24T21:36:09.276Z,3.30
2023-02-24T21:38:37.299Z,3.50
2023-02-24T21:41:09.534Z,3.43
2023-02-24T21:43:37.805Z,3.70
2023-02-24T21:46:06.427Z,3.87
2023-02-24T21:48:33.839Z,3.83
2023-02-24T21:51:03.913Z,3.23
2023-02-24T21:53:35.663Z,3.77
2023-02-24T21:56:16.389Z,3.60
2023-02-24T21:58:50.304Z,3.83
2023-02-24T22:01:23.189Z,3.53
2023-02-24T22:03:54.382Z,3.97
2023-02-24T22:06:22.378Z,3.80
2023-02-24T22:08:49.752Z,3.40
2023-02-24T22:11:18.785Z,4.17
2023-02-24T22:13:46.728Z,3.60
2023-02-24T22:16:19.689Z,3.47
2023-02-24T22:18:47.998Z,4.00
2023-02-24T22:21:18.732Z,4.70
2023-02-24T22:23:47.636Z,4.30
2023-02-24T22:26:15.537Z,4.50
2023-02-24T22:28:44.709Z,4.50
2023-02-24T22:31:13.602Z,5.20
2023-02-24T22:33:42.549Z,4.47
2023-02-24T22:36:21.373Z,4.17
2023-02-24T22:38:49.234Z,4.47
2023-02-24T22:41:19.102Z,4.50
2023-02-24T22:43:46.859Z,4.57
2023-02-24T22:46:16.166Z,4.37
2023-02-24T22:48:44.271Z,4.97
2023-02-24T22:51:13.272Z,4.77
2023-02-24T22:53:43.071Z,5.93
2023-02-24T22:56:14.664Z,5.10
2023-02-24T22:58:41.973Z,4.90
2023-02-24T23:01:17.953Z,5.07
2023-02-24T23:03:46.169Z,5.73
2023-02-24T23:06:16.081Z,5.97
2023-02-24T23:08:45.897Z,5.60
2023-02-24T23:11:29.491Z,5.60
2023-02-24T23:13:58.904Z,5.20
2023-02-24T23:16:31.902Z,5.97
2023-02-24T23:19:01.899Z,5.87
2023-02-24T23:21:37.782Z,5.93
2023-02-24T23:24:06.418Z,6.43
2023-02-24T23:26:38.623Z,5.90
2023-02-24T23:29:06.265Z,6.07
2023-02-24T23:31:33.573Z,6.70
2023-02-24T23:34:01.626Z,5.90
2023-02-24T23:36:28.543Z,6.40
2023-02-24T23:38:56.593Z,6.97
2023-02-24T23:41:23.289Z,6.23
2023-02-24T23:43:50.407Z,6.10
2023-02-24T23:46:17.277Z,6.83
2023-02-24T23:48:44.316Z,6.63
2023-02-24T23:51:13.816Z,6.70
2023-02-24T23:53:42.939Z,6.50
2023-02-24T23:56:30.142Z,7.10
2023-02-24T23:58:58.892Z,6.73
